sensor_id;sensor_type;location;lat;lon;timestamp;pressure;altitude;pressure_sealevel;temperature;humidity
44992;BME280;56865;51.618;7.406;2022-11-02T00:01:36;100789.13;;;15.12;100.00
44992;BME280;56865;51.618;7.406;2022-11-02T00:04:08;100803.56;;;15.04;100.00
44992;BME280;56865;51.618;7.406;2022-11-02T00:06:38;100796.00;;;15.15;100.00
44992;BME280;56865;51.618;7.406;2022-11-02T00:09:10;100794.31;;;15.20;100.00
44992;BME280;56865;51.618;7.406;2022-11-02T00:11:41;100783.09;;;15.11;100.00
44992;BME280;56865;51.618;7.406;2022-11-02T00:14:14;100802.81;;;15.13;100.00
44992;BME280;56865;51.618;7.406;2022-11-02T00:16:44;100794.28;;;15.17;100.00
44992;BME280;56865;51.618;7.406;2022-11-02T00:19:14;100793.44;;;15.19;100.00
44992;BME280;56865;51.618;7.406;2022-11-02T00:21:44;100783.25;;;15.25;100.00
44992;BME280;56865;51.618;7.406;2022-11-02T00:24:15;100783.28;;;15.27;100.00
44992;BME280;56865;51.618;7.406;2022-11-02T00:26:46;100781.56;;;15.27;100.00
44992;BME280;56865;51.618;7.406;2022-11-02T00:29:19;100773.06;;;15.35;100.00
44992;BME280;56865;51.618;7.406;2022-11-02T00:31:50;100769.69;;;15.37;100.00
44992;BME280;56865;51.618;7.406;2022-11-02T00:34:20;100776.44;;;15.27;100.00
44992;BME280;56865;51.618;7.406;2022-11-02T00:36:50;100776.44;;;15.31;100.00
44992;BME280;56865;51.618;7.406;2022-11-02T00:39:21;100767.94;;;15.35;100.00
44992;BME280;56865;51.618;7.406;2022-11-02T00:41:51;100769.69;;;15.42;100.00
44992;BME280;56865;51.618;7.406;2022-11-02T00:44:24;100765.34;;;15.33;100.00
44992;BME280;56865;51.618;7.406;2022-11-02T00:46:54;100773.78;;;15.18;100.00
44992;BME280;56865;51.618;7.406;2022-11-02T00:49:24;100765.31;;;15.32;100.00
44992;BME280;56865;51.618;7.406;2022-11-02T00:51:54;100779.06;;;15.34;100.00
44992;BME280;56865;51.618;7.406;2022-11-02T00:54:25;100773.94;;;15.35;100.00
44992;BME280;56865;51.618;7.406;2022-11-02T00:56:55;100773.94;;;15.37;100.00
44992;BME280;56865;51.618;7.406;2022-11-02T00:59:29;100776.41;;;15.24;100.00
44992;BME280;56865;51.618;7.406;2022-11-02T01:01:59;100771.34;;;15.34;100.00
44992;BME280;56865;51.618;7.406;2022-11-02T01:04:29;100774.75;;;15.33;100.00
44992;BME280;56865;51.618;7.406;2022-11-02T01:07:00;100772.13;;;15.26;100.00
44992;BME280;56865;51.618;7.406;2022-11-02T01:09:31;100776.31;;;15.15;100.00
44992;BME280;56865;51.618;7.406;2022-11-02T01:12:01;100756.63;;;15.16;100.00
44992;BME280;56865;51.618;7.406;2022-11-02T01:14:34;100784.91;;;15.22;100.00
44992;BME280;56865;51.618;7.406;2022-11-02T01:17:04;100768.66;;;15.23;100.00
44992;BME280;56865;51.618;7.406;2022-11-02T01:19:34;100764.41;;;15.23;100.00
44992;BME280;56865;51.618;7.406;2022-11-02T01:22:05;100765.25;;;15.21;100.00
44992;BME280;56865;51.618;7.406;2022-11-02T01:24:35;100764.44;;;15.26;100.00
44992;BME280;56865;51.618;7.406;2022-11-02T01:27:05;100749.97;;;15.38;100.00
44992;BME280;56865;51.618;7.406;2022-11-02T01:29:38;100756.72;;;15.25;100.00
44992;BME280;56865;51.618;7.406;2022-11-02T01:32:08;100774.63;;;15.17;100.00
44992;BME280;56865;51.618;7.406;2022-11-02T01:34:39;100767.78;;;15.19;100.00
44992;BME280;56865;51.618;7.406;2022-11-02T01:37:09;100766.03;;;15.15;100.00
44992;BME280;56865;51.618;7.406;2022-11-02T01:39:39;100770.34;;;15.19;100.00
44992;BME280;56865;51.618;7.406;2022-11-02T01:42:16;100759.28;;;15.26;100.00
44992;BME280;56865;51.618;7.406;2022-11-02T01:44:49;100766.03;;;15.15;100.00
44992;BME280;56865;51.618;7.406;2022-11-02T01:47:21;100770.38;;;15.21;100.00
44992;BME280;56865;51.618;7.406;2022-11-02T01:49:54;100772.03;;;15.16;100.00
44992;BME280;56865;51.618;7.406;2022-11-02T01:52:26;100760.75;;;15.03;100.00
44992;BME280;56865;51.618;7.406;2022-11-02T01:54:58;100755.81;;;15.21;100.00
44992;BME280;56865;51.618;7.406;2022-11-02T01:57:30;100755.88;;;15.26;100.00
44992;BME280;56865;51.618;7.406;2022-11-02T02:00:05;100764.34;;;15.19;100.00
44992;BME280;56865;51.618;7.406;2022-11-02T02:02:37;100764.31;;;15.14;100.00
44992;BME280;56865;51.618;7.406;2022-11-02T02:05:09;100771.00;;;15.00;100.00
44992;BME280;56865;51.618;7.406;2022-11-02T02:07:41;100760.88;;;15.12;100.00
44992;BME280;56865;51.618;7.406;2022-11-02T02:10:12;100753.94;;;15.03;100.00
44992;BME280;56865;51.618;7.406;2022-11-02T02:12:43;100768.53;;;15.07;100.00
44992;BME280;56865;51.618;7.406;2022-11-02T02:15:16;100770.25;;;15.08;100.00
44992;BME280;56865;51.618;7.406;2022-11-02T02:17:48;100768.41;;;14.97;100.00
44992;BME280;56865;51.618;7.406;2022-11-02T02:20:25;100763.31;;;15.00;100.00
44992;BME280;56865;51.618;7.406;2022-11-02T02:23:07;100767.63;;;15.05;100.00
44992;BME280;56865;51.618;7.406;2022-11-02T02:25:51;100763.44;;;15.14;100.00
44992;BME280;56865;51.618;7.406;2022-11-02T02:28:31;100763.31;;;14.98;100.00
44992;BME280;56865;51.618;7.406;2022-11-02T02:31:10;100771.09;;;15.06;100.00
44992;BME280;56865;51.618;7.406;2022-11-02T02:33:45;100752.28;;;15.07;100.00
44992;BME280;56865;51.618;7.406;2022-11-02T02:36:19;100753.19;;;15.17;100.00
44992;BME280;56865;51.618;7.406;2022-11-02T02:38:54;100758.31;;;15.15;100.00
44992;BME280;56865;51.618;7.406;2022-11-02T02:41:29;100751.44;;;15.11;100.00
44992;BME280;56865;51.618;7.406;2022-11-02T02:44:04;100760.03;;;15.15;100.00
44992;BME280;56865;51.618;7.406;2022-11-02T02:46:36;100761.66;;;15.08;100.00
44992;BME280;56865;51.618;7.406;2022-11-02T02:49:09;100750.50;;;15.03;100.00
44992;BME280;56865;51.618;7.406;2022-11-02T02:51:41;100753.13;;;15.10;100.00
44992;BME280;56865;51.618;7.406;2022-11-02T02:54:16;100744.59;;;15.11;100.00
44992;BME280;56865;51.618;7.406;2022-11-02T02:56:49;100757.34;;;15.04;100.00
44992;BME280;56865;51.618;7.406;2022-11-02T02:59:25;100753.13;;;15.10;100.00
44992;BME280;56865;51.618;7.406;2022-11-02T03:01:56;100759.03;;;15.02;100.00
44992;BME280;56865;51.618;7.406;2022-11-02T03:04:27;100754.66;;;14.91;100.00
44992;BME280;56865;51.618;7.406;2022-11-02T03:06:57;100757.31;;;14.99;100.00
44992;BME280;56865;51.618;7.406;2022-11-02T03:09:30;100759.84;;;14.94;100.00
44992;BME280;56865;51.618;7.406;2022-11-02T03:12:05;100743.63;;;15.02;100.00
44992;BME280;56865;51.618;7.406;2022-11-02T03:14:45;100753.94;;;15.05;100.00
44992;BME280;56865;51.618;7.406;2022-11-02T03:17:19;100757.22;;;14.91;100.00
44992;BME280;56865;51.618;7.406;2022-11-02T03:19:54;100758.09;;;14.93;100.00
44992;BME280;56865;51.618;7.406;2022-11-02T03:22:28;100759.84;;;14.96;100.00
44992;BME280;56865;51.618;7.406;2022-11-02T03:25:01;100756.44;;;14.99;100.00
44992;BME280;56865;51.618;7.406;2022-11-02T03:27:36;100762.34;;;14.91;100.00
44992;BME280;56865;51.618;7.406;2022-11-02T03:30:10;100763.09;;;14.81;100.00
44992;BME280;56865;51.618;7.406;2022-11-02T03:32:44;100771.00;;;15.00;100.00
44992;BME280;56865;51.618;7.406;2022-11-02T03:35:18;100773.56;;;15.00;100.00
44992;BME280;56865;51.618;7.406;2022-11-02T03:37:50;100777.75;;;14.93;100.00
44992;BME280;56865;51.618;7.406;2022-11-02T03:40:23;100777.81;;;14.98;100.00
44992;BME280;56865;51.618;7.406;2022-11-02T03:42:54;100787.38;;;15.11;100.00
44992;BME280;56865;51.618;7.406;2022-11-02T03:45:28;100782.13;;;15.02;100.00
44992;BME280;56865;51.618;7.406;2022-11-02T03:48:00;100788.91;;;14.95;100.00
44992;BME280;56865;51.618;7.406;2022-11-02T03:50:32;100784.75;;;15.05;100.00
44992;BME280;56865;51.618;7.406;2022-11-02T03:53:04;100797.50;;;14.95;100.00
44992;BME280;56865;51.618;7.406;2022-11-02T03:55:36;100794.25;;;15.12;100.00
44992;BME280;56865;51.618;7.406;2022-11-02T03:58:08;100795.03;;;15.05;100.00
44992;BME280;56865;51.618;7.406;2022-11-02T04:00:45;100793.22;;;14.94;100.00
44992;BME280;56865;51.618;7.406;2022-11-02T04:03:16;100805.13;;;14.89;100.00
44992;BME280;56865;51.618;7.406;2022-11-02T04:06:00;100809.38;;;14.90;100.00
44992;BME280;56865;51.618;7.406;2022-11-02T04:08:31;100806.97;;;15.03;100.00
44992;BME280;56865;51.618;7.406;2022-11-02T04:11:04;100813.69;;;14.93;100.00
44992;BME280;56865;51.618;7.406;2022-11-02T04:13:46;100812.03;;;14.97;100.00
44992;BME280;56865;51.618;7.406;2022-11-02T04:16:31;100811.09;;;14.87;100.00
44992;BME280;56865;51.618;7.406;2022-11-02T04:19:01;100817.91;;;14.88;100.00
44992;BME280;56865;51.618;7.406;2022-11-02T04:21:43;100826.50;;;14.88;100.00
44992;BME280;56865;51.618;7.406;2022-11-02T04:24:35;100817.91;;;14.85;100.00
44992;BME280;56865;51.618;7.406;2022-11-02T04:27:17;100823.78;;;14.79;100.00
44992;BME280;56865;51.618;7.406;2022-11-02T04:29:47;100831.38;;;14.70;100.00
44992;BME280;56865;51.618;7.406;2022-11-02T04:32:20;100827.94;;;14.68;100.00
44992;BME280;56865;51.618;7.406;2022-11-02T04:35:04;100830.50;;;14.68;100.00
44992;BME280;56865;51.618;7.406;2022-11-02T04:37:37;100840.97;;;14.83;100.00
44992;BME280;56865;51.618;7.406;2022-11-02T04:40:19;100834.94;;;14.78;100.00
44992;BME280;56865;51.618;7.406;2022-11-02T04:42:48;100827.16;;;14.72;100.00
44992;BME280;56865;51.618;7.406;2022-11-02T04:45:18;100820.22;;;14.65;100.00
44992;BME280;56865;51.618;7.406;2022-11-02T04:47:50;100833.94;;;14.67;100.00
44992;BME280;56865;51.618;7.406;2022-11-02T04:50:20;100836.53;;;14.71;100.00
44992;BME280;56865;51.618;7.406;2022-11-02T04:52:53;100844.09;;;14.63;100.00
44992;BME280;56865;51.618;7.406;2022-11-02T04:55:23;100845.06;;;14.69;100.00
44992;BME280;56865;51.618;7.406;2022-11-02T04:57:52;100845.94;;;14.71;100.00
44992;BME280;56865;51.618;7.406;2022-11-02T05:00:22;100850.19;;;14.70;100.00
44992;BME280;56865;51.618;7.406;2022-11-02T05:02:55;100855.19;;;14.62;100.00
44992;BME280;56865;51.618;7.406;2022-11-02T05:05:24;100858.66;;;14.63;100.00
44992;BME280;56865;51.618;7.406;2022-11-02T05:07:54;100869.72;;;14.60;100.00
44992;BME280;56865;51.618;7.406;2022-11-02T05:10:23;100857.03;;;14.67;100.00
44992;BME280;56865;51.618;7.406;2022-11-02T05:12:55;100872.22;;;14.57;100.00
44992;BME280;56865;51.618;7.406;2022-11-02T05:15:27;100864.72;;;14.67;100.00
44992;BME280;56865;51.618;7.406;2022-11-02T05:18:09;100851.94;;;14.71;100.00
44992;BME280;56865;51.618;7.406;2022-11-02T05:21:15;100863.91;;;14.71;100.00
44992;BME280;56865;51.618;7.406;2022-11-02T05:27:18;100867.91;;;14.55;100.00
44992;BME280;56865;51.618;7.406;2022-11-02T05:29:53;100873.97;;;14.58;100.00
44992;BME280;56865;51.618;7.406;2022-11-02T05:32:34;100880.84;;;14.61;100.00
44992;BME280;56865;51.618;7.406;2022-11-02T05:43:42;100887.00;;;14.71;100.00
44992;BME280;56865;51.618;7.406;2022-11-02T05:46:12;100901.41;;;14.64;100.00
44992;BME280;56865;51.618;7.406;2022-11-02T05:48:42;100895.34;;;14.59;100.00
44992;BME280;56865;51.618;7.406;2022-11-02T05:51:27;100910.72;;;14.59;100.00
44992;BME280;56865;51.618;7.406;2022-11-02T05:53:57;100897.19;;;14.68;100.00
44992;BME280;56865;51.618;7.406;2022-11-02T05:56:26;100895.41;;;14.63;100.00
44992;BME280;56865;51.618;7.406;2022-11-02T05:59:26;100915.84;;;14.57;100.00
44992;BME280;56865;51.618;7.406;2022-11-02T06:01:56;100911.63;;;14.61;100.00
44992;BME280;56865;51.618;7.406;2022-11-02T06:04:26;100902.22;;;14.61;100.00
44992;BME280;56865;51.618;7.406;2022-11-02T06:06:55;100920.94;;;14.54;100.00
44992;BME280;56865;51.618;7.406;2022-11-02T06:09:25;100921.88;;;14.61;100.00
44992;BME280;56865;51.618;7.406;2022-11-02T06:11:54;100930.63;;;14.72;100.00
44992;BME280;56865;51.618;7.406;2022-11-02T06:14:26;100932.06;;;14.56;100.00
44992;BME280;56865;51.618;7.406;2022-11-02T06:16:58;100926.81;;;14.49;100.00
44992;BME280;56865;51.618;7.406;2022-11-02T06:19:29;100917.50;;;14.54;100.00
44992;BME280;56865;51.618;7.406;2022-11-02T06:22:00;100931.38;;;14.65;100.00
44992;BME280;56865;51.618;7.406;2022-11-02T06:24:30;100943.22;;;14.58;100.00
44992;BME280;56865;51.618;7.406;2022-11-02T06:27:27;100952.66;;;14.61;100.00
44992;BME280;56865;51.618;7.406;2022-11-02T06:30:00;100950.69;;;14.44;100.00
44992;BME280;56865;51.618;7.406;2022-11-02T06:32:33;100960.16;;;14.49;100.00
44992;BME280;56865;51.618;7.406;2022-11-02T06:35:04;100964.47;;;14.51;100.00
44992;BME280;56865;51.618;7.406;2022-11-02T06:37:35;100972.28;;;14.59;100.00
44992;BME280;56865;51.618;7.406;2022-11-02T06:40:05;100972.25;;;14.56;100.00
44992;BME280;56865;51.618;7.406;2022-11-02T06:42:36;100978.38;;;14.64;100.00
44992;BME280;56865;51.618;7.406;2022-11-02T06:45:13;100982.44;;;14.51;100.00
44992;BME280;56865;51.618;7.406;2022-11-02T06:47:42;100991.16;;;14.61;100.00
44992;BME280;56865;51.618;7.406;2022-11-02T06:50:12;100996.16;;;14.52;100.00
44992;BME280;56865;51.618;7.406;2022-11-02T06:52:42;101004.75;;;14.55;100.00
44992;BME280;56865;51.618;7.406;2022-11-02T06:55:19;101007.34;;;14.57;100.00
44992;BME280;56865;51.618;7.406;2022-11-02T06:58:27;101003.78;;;14.50;100.00
44992;BME280;56865;51.618;7.406;2022-11-02T09:46:24;101247.88;;;16.94;100.00
44992;BME280;56865;51.618;7.406;2022-11-02T09:50:37;101256.88;;;17.35;100.00
44992;BME280;56865;51.618;7.406;2022-11-02T09:53:54;101263.75;;;17.36;100.00
44992;BME280;56865;51.618;7.406;2022-11-02T09:56:30;101261.50;;;17.78;100.00
44992;BME280;56865;51.618;7.406;2022-11-02T09:59:01;101267.59;;;17.89;100.00
44992;BME280;56865;51.618;7.406;2022-11-02T10:08:13;101271.50;;;18.76;100.00
44992;BME280;56865;51.618;7.406;2022-11-02T10:10:47;101272.47;;;19.02;100.00
44992;BME280;56865;51.618;7.406;2022-11-02T10:13:23;101269.91;;;19.19;100.00
44992;BME280;56865;51.618;7.406;2022-11-02T10:15:58;101256.03;;;18.82;100.00
44992;BME280;56865;51.618;7.406;2022-11-02T10:18:29;101275.09;;;19.17;100.00
44992;BME280;56865;51.618;7.406;2022-11-02T10:21:00;101279.41;;;19.38;100.00
44992;BME280;56865;51.618;7.406;2022-11-02T10:23:36;101265.59;;;19.00;100.00
44992;BME280;56865;51.618;7.406;2022-11-02T10:26:09;101276.84;;;19.32;100.00
44992;BME280;56865;51.618;7.406;2022-11-02T10:28:44;101280.25;;;19.70;100.00
44992;BME280;56865;51.618;7.406;2022-11-02T10:31:19;101285.44;;;19.90;100.00
44992;BME280;56865;51.618;7.406;2022-11-02T10:33:53;101289.75;;;19.57;97.87
44992;BME280;56865;51.618;7.406;2022-11-02T10:36:27;101288.00;;;20.13;100.00
44992;BME280;56865;51.618;7.406;2022-11-02T10:39:05;101294.97;;;19.88;95.01
44992;BME280;56865;51.618;7.406;2022-11-02T10:41:40;101296.59;;;20.21;100.00
44992;BME280;56865;51.618;7.406;2022-11-02T10:47:03;101296.59;;;20.37;87.89
44992;BME280;56865;51.618;7.406;2022-11-02T10:49:43;101306.03;;;20.45;89.26
44992;BME280;56865;51.618;7.406;2022-11-02T10:52:15;101314.56;;;20.83;89.22
44992;BME280;56865;51.618;7.406;2022-11-02T10:54:49;101312.09;;;20.43;91.23
44992;BME280;56865;51.618;7.406;2022-11-02T10:57:19;101309.41;;;20.72;86.77
44992;BME280;56865;51.618;7.406;2022-11-02T11:02:35;101315.41;;;20.85;89.65
44992;BME280;56865;51.618;7.406;2022-11-02T11:05:10;101323.19;;;20.84;86.03
44992;BME280;56865;51.618;7.406;2022-11-02T11:07:41;101314.50;;;20.94;84.27
44992;BME280;56865;51.618;7.406;2022-11-02T11:10:15;101318.59;;;21.29;85.57
44992;BME280;56865;51.618;7.406;2022-11-02T11:12:45;101320.50;;;20.99;84.95
44992;BME280;56865;51.618;7.406;2022-11-02T11:15:19;101316.22;;;20.95;76.72
44992;BME280;56865;51.618;7.406;2022-11-02T11:18:11;101339.34;;;21.32;75.35
44992;BME280;56865;51.618;7.406;2022-11-02T11:21:02;101331.31;;;21.69;78.48
44992;BME280;56865;51.618;7.406;2022-11-02T11:23:31;101331.31;;;21.69;78.16
44992;BME280;56865;51.618;7.406;2022-11-02T11:26:04;101337.25;;;21.82;77.13
44992;BME280;56865;51.618;7.406;2022-11-02T11:28:36;101326.22;;;21.55;74.22
44992;BME280;56865;51.618;7.406;2022-11-02T11:31:07;101329.47;;;21.81;76.46
44992;BME280;56865;51.618;7.406;2022-11-02T11:33:44;101337.00;;;22.08;76.25
44992;BME280;56865;51.618;7.406;2022-11-02T11:36:24;101345.78;;;21.98;75.59
44992;BME280;56865;51.618;7.406;2022-11-02T11:38:56;101341.59;;;21.85;73.42
44992;BME280;56865;51.618;7.406;2022-11-02T11:41:29;101333.66;;;21.99;75.72
44992;BME280;56865;51.618;7.406;2022-11-02T11:44:00;101338.72;;;22.11;78.10
44992;BME280;56865;51.618;7.406;2022-11-02T11:46:40;101341.34;;;22.08;74.04
44992;BME280;56865;51.618;7.406;2022-11-02T11:49:17;101336.44;;;21.77;75.44
44992;BME280;56865;51.618;7.406;2022-11-02T11:51:56;101343.38;;;21.75;73.02
44992;BME280;56865;51.618;7.406;2022-11-02T11:54:27;101341.78;;;21.60;71.89
44992;BME280;56865;51.618;7.406;2022-11-02T11:57:15;101334.75;;;21.71;75.14
44992;BME280;56865;51.618;7.406;2022-11-02T11:59:47;101337.44;;;21.64;74.84
44992;BME280;56865;51.618;7.406;2022-11-02T12:02:20;101336.59;;;21.57;72.98
44992;BME280;56865;51.618;7.406;2022-11-02T12:04:50;101342.72;;;21.45;70.37
44992;BME280;56865;51.618;7.406;2022-11-02T12:07:23;101350.59;;;21.28;74.95
44992;BME280;56865;51.618;7.406;2022-11-02T12:09:59;101338.63;;;21.08;73.77
44992;BME280;56865;51.618;7.406;2022-11-02T12:12:38;101349.78;;;21.21;72.80
44992;BME280;56865;51.618;7.406;2022-11-02T12:15:13;101333.41;;;21.15;73.97
44992;BME280;56865;51.618;7.406;2022-11-02T12:17:48;101333.38;;;21.18;74.68
44992;BME280;56865;51.618;7.406;2022-11-02T12:20:32;101330.81;;;21.15;76.84
44992;BME280;56865;51.618;7.406;2022-11-02T12:23:06;101326.47;;;21.18;74.38
44992;BME280;56865;51.618;7.406;2022-11-02T12:25:39;101324.66;;;21.28;75.11
44992;BME280;56865;51.618;7.406;2022-11-02T12:28:19;101319.59;;;21.09;78.36
44992;BME280;56865;51.618;7.406;2022-11-02T12:30:54;101319.47;;;21.28;74.33
44992;BME280;56865;51.618;7.406;2022-11-02T12:33:35;101330.72;;;21.25;71.06
44992;BME280;56865;51.618;7.406;2022-11-02T12:36:11;101313.59;;;21.04;75.99
44992;BME280;56865;51.618;7.406;2022-11-02T12:41:34;101302.97;;;21.40;75.47
44992;BME280;56865;51.618;7.406;2022-11-02T12:44:12;101310.78;;;21.38;71.78
44992;BME280;56865;51.618;7.406;2022-11-02T12:46:45;101302.06;;;21.49;76.35
44992;BME280;56865;51.618;7.406;2022-11-02T12:49:26;101322.69;;;21.64;78.61
44992;BME280;56865;51.618;7.406;2022-11-02T12:52:03;101310.63;;;21.60;71.17
44992;BME280;56865;51.618;7.406;2022-11-02T12:54:37;101313.72;;;22.01;78.04
44992;BME280;56865;51.618;7.406;2022-11-02T12:57:10;101311.25;;;21.87;71.62
44992;BME280;56865;51.618;7.406;2022-11-02T12:59:44;101307.53;;;22.16;74.53
44992;BME280;56865;51.618;7.406;2022-11-02T13:02:16;101318.84;;;22.07;68.87
44992;BME280;56865;51.618;7.406;2022-11-02T13:04:48;101317.38;;;21.83;68.53
44992;BME280;56865;51.618;7.406;2022-11-02T13:07:20;101308.91;;;21.61;67.56
44992;BME280;56865;51.618;7.406;2022-11-02T13:09:55;101313.69;;;20.86;74.35
44992;BME280;56865;51.618;7.406;2022-11-02T13:12:27;101309.47;;;20.55;75.49
44992;BME280;56865;51.618;7.406;2022-11-02T13:15:03;101311.09;;;20.83;72.28
44992;BME280;56865;51.618;7.406;2022-11-02T13:17:38;101311.69;;;21.30;69.35
44992;BME280;56865;51.618;7.406;2022-11-02T13:20:12;101309.16;;;21.19;69.47
44992;BME280;56865;51.618;7.406;2022-11-02T13:22:43;101307.44;;;21.18;76.60
44992;BME280;56865;51.618;7.406;2022-11-02T13:25:14;101295.38;;;21.14;70.08
44992;BME280;56865;51.618;7.406;2022-11-02T13:27:46;101307.50;;;21.10;69.27
44992;BME280;56865;51.618;7.406;2022-11-02T13:30:19;101304.25;;;20.75;72.35
44992;BME280;56865;51.618;7.406;2022-11-02T13:32:50;101307.72;;;20.56;73.26
44992;BME280;56865;51.618;7.406;2022-11-02T13:35:23;101304.31;;;20.51;75.41
44992;BME280;56865;51.618;7.406;2022-11-02T13:37:55;101306.97;;;20.21;75.66
44992;BME280;56865;51.618;7.406;2022-11-02T13:40:26;101294.97;;;19.88;77.53
44992;BME280;56865;51.618;7.406;2022-11-02T13:48:34;101294.00;;;18.97;79.71
44992;BME280;56865;51.618;7.406;2022-11-02T13:51:07;101292.25;;;18.96;83.76
44992;BME280;56865;51.618;7.406;2022-11-02T13:53:42;101292.25;;;18.90;86.73
44992;BME280;56865;51.618;7.406;2022-11-02T13:56:20;101288.69;;;18.71;88.54
44992;BME280;56865;51.618;7.406;2022-11-02T13:58:54;101289.53;;;18.64;88.21
44992;BME280;56865;51.618;7.406;2022-11-02T14:01:25;101298.09;;;18.50;86.82
44992;BME280;56865;51.618;7.406;2022-11-02T14:04:00;101297.22;;;18.45;88.39
44992;BME280;56865;51.618;7.406;2022-11-02T14:06:31;101293.78;;;18.52;92.44
44992;BME280;56865;51.618;7.406;2022-11-02T14:09:03;101288.56;;;18.34;91.58
44992;BME280;56865;51.618;7.406;2022-11-02T14:11:34;101293.53;;;18.06;89.14
44992;BME280;56865;51.618;7.406;2022-11-02T14:17:10;101295.94;;;17.81;94.53
44992;BME280;56865;51.618;7.406;2022-11-02T14:19:53;101293.28;;;17.74;94.95
44992;BME280;56865;51.618;7.406;2022-11-02T14:22:29;101291.63;;;17.83;98.66
44992;BME280;56865;51.618;7.406;2022-11-02T14:25:06;101288.16;;;17.75;100.00
44992;BME280;56865;51.618;7.406;2022-11-02T14:27:41;101288.03;;;17.63;99.81
44992;BME280;56865;51.618;7.406;2022-11-02T14:32:57;101277.69;;;17.57;100.00
44992;BME280;56865;51.618;7.406;2022-11-02T14:35:42;101277.44;;;17.27;100.00
44992;BME280;56865;51.618;7.406;2022-11-02T14:38:20;101286.06;;;17.34;100.00
44992;BME280;56865;51.618;7.406;2022-11-02T14:40:59;101296.16;;;17.11;100.00
44992;BME280;56865;51.618;7.406;2022-11-02T14:43:45;101284.25;;;17.24;100.00
44992;BME280;56865;51.618;7.406;2022-11-02T14:46:22;101278.19;;;17.18;100.00
44992;BME280;56865;51.618;7.406;2022-11-02T14:48:59;101269.38;;;16.96;100.00
44992;BME280;56865;51.618;7.406;2022-11-02T14:51:34;101261.84;;;17.13;100.00
44992;BME280;56865;51.618;7.406;2022-11-02T14:54:05;101270.44;;;17.15;100.00
44992;BME280;56865;51.618;7.406;2022-11-02T14:56:45;101273.75;;;17.03;100.00
44992;BME280;56865;51.618;7.406;2022-11-02T14:59:16;101260.94;;;17.08;100.00
44992;BME280;56865;51.618;7.406;2022-11-02T15:01:50;101264.31;;;17.05;100.00
44992;BME280;56865;51.618;7.406;2022-11-02T15:04:22;101265.97;;;16.99;100.00
44992;BME280;56865;51.618;7.406;2022-11-02T15:06:56;101265.09;;;16.97;100.00
44992;BME280;56865;51.618;7.406;2022-11-02T15:15:00;101255.47;;;16.83;100.00
44992;BME280;56865;51.618;7.406;2022-11-02T15:25:58;101239.81;;;16.65;100.00
44992;BME280;56865;51.618;7.406;2022-11-02T15:28:28;101237.16;;;16.55;100.00
44992;BME280;56865;51.618;7.406;2022-11-02T15:31:03;101240.50;;;16.51;100.00
44992;BME280;56865;51.618;7.406;2022-11-02T15:33:34;101243.88;;;16.46;100.00
44992;BME280;56865;51.618;7.406;2022-11-02T15:36:05;101242.06;;;16.38;100.00
44992;BME280;56865;51.618;7.406;2022-11-02T15:38:36;101241.22;;;16.36;100.00
44992;BME280;56865;51.618;7.406;2022-11-02T15:41:15;101235.09;;;16.30;100.00
44992;BME280;56865;51.618;7.406;2022-11-02T15:43:54;101241.13;;;16.30;100.00
44992;BME280;56865;51.618;7.406;2022-11-02T15:46:29;101239.38;;;16.28;100.00
44992;BME280;56865;51.618;7.406;2022-11-02T15:49:05;101228.13;;;16.19;100.00
44992;BME280;56865;51.618;7.406;2022-11-02T15:51:37;101230.59;;;16.13;100.00
44992;BME280;56865;51.618;7.406;2022-11-02T15:54:20;101227.09;;;16.08;100.00
44992;BME280;56865;51.618;7.406;2022-11-02T15:56:56;101232.25;;;16.08;100.00
44992;BME280;56865;51.618;7.406;2022-11-02T15:59:34;101223.53;;;15.98;100.00
44992;BME280;56865;51.618;7.406;2022-11-02T16:16:56;101221.97;;;15.51;100.00
44992;BME280;56865;51.618;7.406;2022-11-02T16:19:26;101230.41;;;15.46;100.00
44992;BME280;56865;51.618;7.406;2022-11-02T16:21:55;101232.72;;;15.27;100.00
44992;BME280;56865;51.618;7.406;2022-11-02T16:24:26;101226.78;;;15.33;100.00
44992;BME280;56865;51.618;7.406;2022-11-02T16:26:56;101230.19;;;15.30;100.00
44992;BME280;56865;51.618;7.406;2022-11-02T16:29:28;101242.72;;;15.13;100.00
44992;BME280;56865;51.618;7.406;2022-11-02T16:32:01;101229.16;;;15.20;100.00
44992;BME280;56865;51.618;7.406;2022-11-02T16:35:02;101232.44;;;15.13;100.00
44992;BME280;56865;51.618;7.406;2022-11-02T16:45:26;101218.47;;;14.95;100.00
44992;BME280;56865;51.618;7.406;2022-11-02T16:48:28;101212.34;;;14.90;100.00
44992;BME280;56865;51.618;7.406;2022-11-02T16:55:27;101217.06;;;14.67;100.00
44992;BME280;56865;51.618;7.406;2022-11-02T16:58:42;101219.78;;;14.75;100.00
44992;BME280;56865;51.618;7.406;2022-11-02T17:05:20;101218.81;;;14.70;100.00
44992;BME280;56865;51.618;7.406;2022-11-02T17:08:35;101210.31;;;14.72;100.00
44992;BME280;56865;51.618;7.406;2022-11-02T17:11:35;101203.34;;;14.65;100.00
44992;BME280;56865;51.618;7.406;2022-11-02T17:15:02;101212.63;;;14.61;100.00
44992;BME280;56865;51.618;7.406;2022-11-02T17:18:23;101216.94;;;14.62;100.00
44992;BME280;56865;51.618;7.406;2022-11-02T17:21:27;101210.97;;;14.63;100.00
44992;BME280;56865;51.618;7.406;2022-11-02T17:24:28;101217.66;;;14.55;100.00
44992;BME280;56865;51.618;7.406;2022-11-02T17:27:22;101216.75;;;14.53;100.00
44992;BME280;56865;51.618;7.406;2022-11-02T17:33:36;101216.63;;;14.47;100.00
44992;BME280;56865;51.618;7.406;2022-11-02T17:36:52;101214.22;;;14.55;100.00
44992;BME280;56865;51.618;7.406;2022-11-02T17:39:50;101213.25;;;14.48;100.00